createdAt,value
2023-05-16T00:02:27.257Z,101689.03
2023-05-16T00:04:56.521Z,101701.19
2023-05-16T00:07:25.068Z,101701.75
2023-05-16T00:09:53.602Z,101701.75
2023-05-16T00:12:22.979Z,101701.75
2023-05-16T00:14:51.953Z,101697.59
2023-05-16T00:17:21.331Z,101701.75
2023-05-16T00:19:50.714Z,101701.75
2023-05-16T00:22:20.054Z,101702.97
2023-05-16T00:24:49.279Z,101694.94
2023-05-16T00:27:18.539Z,101696.38
2023-05-16T00:29:47.771Z,101691.03
2023-05-16T00:32:16.767Z,101697.59
2023-05-16T00:34:45.504Z,101689.56
2023-05-16T00:37:15.652Z,101695.66
2023-05-16T00:39:44.529Z,101697.59
2023-05-16T00:42:14.626Z,101700.28
2023-05-16T00:44:43.698Z,101704.22
2023-05-16T00:47:12.926Z,101699.56
2023-05-16T00:49:41.491Z,101711.00
2023-05-16T00:52:09.666Z,101708.09
2023-05-16T00:54:38.527Z,101708.09
2023-05-16T00:57:07.364Z,101708.09
2023-05-16T00:59:37.987Z,101708.09
2023-05-16T01:02:07.023Z,101708.09
2023-05-16T01:04:35.954Z,101706.69
2023-05-16T01:07:04.832Z,101705.25
2023-05-16T01:09:35.521Z,101710.59
2023-05-16T01:12:05.246Z,101713.28
2023-05-16T01:14:34.598Z,101714.53
2023-05-16T01:17:03.828Z,101713.06
2023-05-16T01:19:32.684Z,101708.44
2023-05-16T01:22:00.901Z,101713.06
2023-05-16T01:24:29.133Z,101714.34
2023-05-16T01:26:57.927Z,101707.69
2023-05-16T01:29:27.746Z,101722.38
2023-05-16T01:31:56.667Z,101716.28
2023-05-16T01:34:25.222Z,101720.91
2023-05-16T01:36:55.488Z,101718.25
2023-05-16T01:39:23.339Z,101708.75
2023-05-16T01:41:51.297Z,101723.41
2023-05-16T01:44:21.402Z,101723.41
2023-05-16T01:46:50.415Z,101721.25
2023-05-16T01:49:18.709Z,101721.97
2023-05-16T01:51:47.902Z,101720.50
2023-05-16T01:54:16.741Z,101721.97
2023-05-16T01:56:46.049Z,101720.50
2023-05-16T01:59:14.976Z,101724.41
2023-05-16T02:01:43.829Z,101723.19
2023-05-16T02:04:12.934Z,101715.97
2023-05-16T02:06:42.894Z,101724.22
2023-05-16T02:09:10.936Z,101726.88
2023-05-16T02:11:41.836Z,101726.88
2023-05-16T02:14:10.200Z,101726.88
2023-05-16T02:16:39.297Z,101731.53
2023-05-16T02:19:08.415Z,101726.19
2023-05-16T02:21:36.688Z,101725.47
2023-05-16T02:24:06.481Z,101729.34
2023-05-16T02:26:34.715Z,101734.72
2023-05-16T02:29:04.119Z,101735.44
2023-05-16T02:31:33.615Z,101734.72
2023-05-16T02:34:02.745Z,101741.53
2023-05-16T02:36:31.420Z,101744.75
2023-05-16T02:39:00.727Z,101737.41
2023-05-16T02:41:29.685Z,101742.06
2023-05-16T02:43:58.715Z,101744.75
2023-05-16T02:46:27.852Z,101740.81
2023-05-16T02:48:57.088Z,101745.44
2023-05-16T02:51:25.167Z,101738.13
2023-05-16T02:53:53.187Z,101754.94
2023-05-16T02:56:22.596Z,101746.16
2023-05-16T02:58:51.962Z,101757.63
2023-05-16T03:01:20.876Z,101758.84
2023-05-16T03:03:49.835Z,101763.53
2023-05-16T03:06:18.823Z,101762.06
2023-05-16T03:08:47.326Z,101765.47
2023-05-16T03:11:17.774Z,101769.34
2023-05-16T03:13:48.025Z,101759.38
2023-05-16T03:16:18.007Z,101758.63
2023-05-16T03:18:47.502Z,101762.06
2023-05-16T03:21:16.598Z,101763.28
2023-05-16T03:23:45.999Z,101767.94
2023-05-16T03:26:14.878Z,101767.94
2023-05-16T03:28:44.184Z,101767.94
2023-05-16T03:31:13.141Z,101765.97
2023-05-16T03:33:42.931Z,101767.94
2023-05-16T03:36:11.198Z,101767.94
2023-05-16T03:38:39.742Z,101773.28
2023-05-16T03:41:08.100Z,101766.50
2023-05-16T03:43:36.867Z,101776.50
2023-05-16T03:46:06.037Z,101781.13
2023-05-16T03:48:35.248Z,101777.22
2023-05-16T03:51:04.055Z,101779.88
2023-05-16T03:53:32.947Z,101781.13
2023-05-16T03:56:01.917Z,101786.50
2023-05-16T03:58:31.393Z,101781.88
2023-05-16T04:01:00.709Z,101791.13
2023-05-16T04:03:30.132Z,101799.88
2023-05-16T04:05:59.118Z,101798.66
2023-05-16T04:08:28.358Z,101799.34
2023-05-16T04:10:57.757Z,101804.00
2023-05-16T04:13:26.584Z,101801.31
2023-05-16T04:15:55.887Z,101800.09
2023-05-16T04:18:24.895Z,101806.88
2023-05-16T04:20:53.056Z,101804.94
2023-05-16T04:23:21.891Z,101809.06
2023-05-16T04:25:50.954Z,101807.06
2023-05-16T04:28:19.730Z,101813.91
2023-05-16T04:30:48.952Z,101815.13
2023-05-16T04:33:18.324Z,101813.91
2023-05-16T04:35:47.653Z,101818.03
2023-05-16T04:38:16.916Z,101816.06
2023-05-16T04:40:45.752Z,101811.44
2023-05-16T04:43:14.259Z,101816.81
2023-05-16T04:45:43.526Z,101822.34
2023-05-16T04:48:12.284Z,101826.06
2023-05-16T04:50:41.667Z,101825.03
2023-05-16T04:53:10.481Z,101835.97
2023-05-16T04:55:39.855Z,101834.53
2023-05-16T04:58:09.101Z,101841.34
2023-05-16T05:00:38.068Z,101832.06
2023-05-16T05:03:06.801Z,101844.22
2023-05-16T05:05:35.605Z,101836.38
2023-05-16T05:08:04.619Z,101833.91
2023-05-16T05:10:34.068Z,101828.75
2023-05-16T05:13:03.471Z,101835.78
2023-05-16T05:15:32.300Z,101832.56
2023-05-16T05:18:01.923Z,101843.50
2023-05-16T05:20:31.468Z,101844.22
2023-05-16T05:23:00.375Z,101854.94
2023-05-16T05:25:29.621Z,101853.69
2023-05-16T05:27:58.033Z,101854.44
2023-05-16T05:30:26.960Z,101856.78
2023-05-16T05:32:55.732Z,101860.22
2023-05-16T05:35:25.332Z,101856.78
2023-05-16T05:37:54.467Z,101860.94
2023-05-16T05:40:22.980Z,101863.06
2023-05-16T05:42:51.591Z,101867.03
2023-05-16T05:45:20.835Z,101863.06
2023-05-16T05:47:50.331Z,101869.19
2023-05-16T05:50:19.857Z,101866.50
2023-05-16T05:52:49.011Z,101871.34
2023-05-16T05:55:17.686Z,101865.97
2023-05-16T05:57:46.966Z,101876.16
2023-05-16T06:00:16.522Z,101869.59
2023-05-16T06:02:45.674Z,101863.50
2023-05-16T06:05:15.131Z,101871.03
2023-05-16T06:07:43.639Z,101864.44
2023-05-16T06:10:12.228Z,101867.84
2023-05-16T06:12:41.092Z,101861.97
2023-05-16T06:15:11.387Z,101870.00
2023-05-16T06:17:41.670Z,101876.81
2023-05-16T06:20:10.615Z,101872.88
2023-05-16T06:22:39.463Z,101876.28
2023-05-16T06:25:08.730Z,101874.31
2023-05-16T06:27:37.961Z,101878.66
2023-05-16T06:30:06.832Z,101882.28
2023-05-16T06:32:36.126Z,101883.91
2023-05-16T06:35:05.325Z,101885.56
2023-05-16T06:37:35.098Z,101885.06
2023-05-16T06:40:04.401Z,101879.88
2023-05-16T06:42:33.276Z,101896.72
2023-05-16T06:45:02.532Z,101894.22
2023-05-16T06:47:31.555Z,101884.22
2023-05-16T06:50:01.177Z,101894.97
2023-05-16T06:52:30.553Z,101877.41
2023-05-16T06:54:59.837Z,101894.22
2023-05-16T06:57:28.862Z,101893.50
2023-05-16T06:59:58.248Z,101894.97
2023-05-16T07:02:27.778Z,101893.72
2023-05-16T07:04:57.287Z,101893.91
2023-05-16T07:07:26.575Z,101888.53
2023-05-16T07:09:56.086Z,101896.81
2023-05-16T07:12:25.023Z,101890.94
2023-05-16T07:14:54.483Z,101895.78
2023-05-16T07:17:23.928Z,101898.66
2023-05-16T07:19:53.788Z,101897.59
2023-05-16T07:22:22.751Z,101884.59
2023-05-16T07:24:51.725Z,101913.81
2023-05-16T07:27:23.344Z,101912.97
2023-05-16T07:29:52.515Z,101911.75
2023-05-16T07:32:22.054Z,101915.38
2023-05-16T07:34:52.854Z,101913.56
2023-05-16T07:37:22.144Z,101920.06
2023-05-16T07:39:51.518Z,101924.81
2023-05-16T07:42:20.457Z,101917.78
2023-05-16T07:44:49.919Z,101921.84
2023-05-16T07:47:18.922Z,101920.38
2023-05-16T07:49:49.486Z,101919.53
2023-05-16T07:52:19.809Z,101924.22
2023-05-16T07:54:49.198Z,101925.34
2023-05-16T07:57:18.499Z,101925.03
2023-05-16T07:59:53.303Z,101926.09
2023-05-16T08:02:22.299Z,101925.44
2023-05-16T08:04:51.075Z,101926.84
2023-05-16T08:07:20.033Z,101919.75
2023-05-16T08:09:48.832Z,101919.50
2023-05-16T08:12:32.190Z,101918.34
2023-05-16T08:15:12.399Z,101950.63
2023-05-16T08:17:45.415Z,101960.41
2023-05-16T08:20:14.873Z,101956.75
2023-05-16T08:22:43.681Z,101949.88
2023-05-16T08:25:12.929Z,101955.38
2023-05-16T08:27:41.721Z,101951.97
2023-05-16T08:30:10.688Z,101954.50
2023-05-16T08:32:40.275Z,101959.56
2023-05-16T08:35:09.778Z,101950.78
2023-05-16T08:37:38.744Z,101954.75
2023-05-16T08:40:08.464Z,101946.72
2023-05-16T08:42:38.034Z,101944.03
2023-05-16T08:45:07.152Z,101946.50
2023-05-16T08:47:35.624Z,101949.50
2023-05-16T08:50:04.557Z,101943.97
2023-05-16T08:52:33.681Z,101944.13
2023-05-16T08:57:50.106Z,101932.78
2023-05-16T09:00:19.489Z,101935.22
2023-05-16T09:02:48.855Z,101939.22
2023-05-16T09:05:17.612Z,101938.22
2023-05-16T09:07:46.560Z,101941.31
2023-05-16T09:10:15.606Z,101936.56
2023-05-16T09:12:44.898Z,101939.91
2023-05-16T09:15:14.175Z,101942.41
2023-05-16T09:17:46.175Z,101940.91
2023-05-16T09:20:15.239Z,101938.97
2023-05-16T09:22:44.512Z,101940.84
2023-05-16T09:25:25.568Z,101933.78
2023-05-16T09:27:59.409Z,101943.25
2023-05-16T09:30:28.363Z,101945.41
2023-05-16T09:32:57.524Z,101942.53
2023-05-16T09:35:39.763Z,101940.13
2023-05-16T09:38:12.444Z,101942.59
2023-05-16T09:40:41.666Z,101948.91
2023-05-16T09:43:10.620Z,101940.88
2023-05-16T09:45:39.869Z,101944.31
2023-05-16T09:48:09.314Z,101953.81
2023-05-16T09:50:38.622Z,101952.47
2023-05-16T09:53:06.970Z,101951.81
2023-05-16T09:55:36.571Z,101952.31
2023-05-16T09:58:06.104Z,101944.03
2023-05-16T10:00:35.065Z,101943.16
2023-05-16T10:03:05.917Z,101950.78
2023-05-16T10:05:35.753Z,101940.25
2023-05-16T10:08:05.142Z,101951.41
2023-05-16T10:10:34.618Z,101941.78
2023-05-16T10:13:03.939Z,101944.22
2023-05-16T10:15:32.722Z,101938.31
2023-05-16T10:18:01.951Z,101937.63
2023-05-16T10:20:31.588Z,101933.28
2023-05-16T10:23:00.178Z,101936.63
2023-05-16T10:25:29.011Z,101936.66
2023-05-16T10:27:58.364Z,101948.38
2023-05-16T10:30:27.789Z,101939.53
2023-05-16T10:32:57.695Z,101932.31
2023-05-16T10:35:26.871Z,101933.34
2023-05-16T10:37:56.352Z,101939.97
2023-05-16T10:40:25.696Z,101942.31
2023-05-16T10:42:55.001Z,101937.44
2023-05-16T10:45:23.919Z,101942.66
2023-05-16T10:47:52.857Z,101936.88
2023-05-16T10:50:22.286Z,101941.03
2023-05-16T10:52:51.168Z,101939.50
2023-05-16T10:55:20.565Z,101940.13
2023-05-16T10:57:49.936Z,101944.41
2023-05-16T11:00:19.268Z,101952.16
2023-05-16T11:02:48.775Z,101948.88
2023-05-16T11:05:18.172Z,101949.06
2023-05-16T11:07:47.387Z,101948.00
2023-05-16T11:10:16.841Z,101946.63
2023-05-16T11:12:46.308Z,101945.88
2023-05-16T11:15:15.776Z,101938.59
2023-05-16T11:17:46.217Z,101952.56
2023-05-16T11:20:15.851Z,101949.84
2023-05-16T11:22:46.184Z,101946.59
2023-05-16T11:25:15.025Z,101942.66
2023-05-16T11:27:44.067Z,101942.91
2023-05-16T11:30:12.936Z,101946.00
2023-05-16T11:32:41.756Z,101951.91
2023-05-16T11:35:12.207Z,101957.75
2023-05-16T11:37:43.778Z,101962.53
2023-05-16T11:40:12.503Z,101963.97
2023-05-16T11:42:40.705Z,101970.63
2023-05-16T11:45:10.137Z,101967.75
2023-05-16T11:47:39.213Z,101970.69
2023-05-16T11:50:08.624Z,101967.50
2023-05-16T11:52:37.471Z,101967.78
2023-05-16T11:55:06.439Z,101965.81
2023-05-16T11:57:35.594Z,101963.78
2023-05-16T12:00:04.292Z,101967.81
2023-05-16T12:02:33.744Z,101973.25
2023-05-16T12:05:02.678Z,101969.69
2023-05-16T12:07:33.794Z,101969.16
2023-05-16T12:10:03.217Z,101964.66
2023-05-16T12:12:32.545Z,101973.66
2023-05-16T12:15:01.802Z,101976.00
2023-05-16T12:17:30.583Z,101979.78
2023-05-16T12:19:59.848Z,101978.19
2023-05-16T12:22:28.673Z,101976.41
2023-05-16T12:24:57.201Z,101980.00
2023-05-16T12:27:25.984Z,101984.81
2023-05-16T12:29:55.440Z,101984.97
2023-05-16T12:32:25.244Z,101991.97
2023-05-16T12:34:54.511Z,101988.66
2023-05-16T12:37:23.321Z,101995.09
2023-05-16T12:39:52.125Z,102000.09
2023-05-16T12:42:21.341Z,102002.03
2023-05-16T12:44:51.363Z,102015.44
2023-05-16T12:47:20.878Z,102021.50
2023-05-16T12:49:50.409Z,102026.50
2023-05-16T12:52:19.539Z,102018.56
2023-05-16T12:54:48.327Z,102028.25
2023-05-16T12:57:17.762Z,102018.31
2023-05-16T12:59:46.749Z,102008.28
2023-05-16T13:02:16.099Z,102012.50
2023-05-16T13:04:45.100Z,102010.53
2023-05-16T13:07:14.348Z,102005.25
2023-05-16T13:09:44.005Z,102007.16
2023-05-16T13:12:12.642Z,101999.16
2023-05-16T13:14:43.175Z,102005.66
2023-05-16T13:17:12.737Z,102006.69
2023-05-16T13:19:43.185Z,102005.28
2023-05-16T13:22:13.047Z,101998.91
2023-05-16T13:24:43.462Z,102000.31
2023-05-16T13:27:13.827Z,102002.25
2023-05-16T13:29:43.160Z,102002.13
2023-05-16T13:32:12.380Z,102001.56
2023-05-16T13:34:40.646Z,101998.78
2023-05-16T13:37:10.089Z,101998.84
2023-05-16T13:39:38.662Z,102003.16
2023-05-16T13:42:07.172Z,101997.03
2023-05-16T13:44:35.924Z,102009.94
2023-05-16T13:47:04.860Z,102004.34
2023-05-16T13:49:33.953Z,101998.00
2023-05-16T13:52:03.301Z,102003.78
2023-05-16T13:54:32.241Z,102004.16
2023-05-16T13:57:02.596Z,102003.94
2023-05-16T14:00:02.168Z,102004.84
2023-05-16T14:02:21.308Z,102008.03
2023-05-16T14:04:50.562Z,102022.00
2023-05-16T14:07:19.469Z,102010.09
2023-05-16T14:09:48.397Z,102007.88
2023-05-16T14:12:17.724Z,102003.59
2023-05-16T14:14:46.665Z,101993.41
2023-05-16T14:17:16.082Z,101997.47
2023-05-16T14:19:45.000Z,101998.06
2023-05-16T14:22:14.439Z,102001.66
2023-05-16T14:24:43.897Z,101988.84
2023-05-16T14:27:12.910Z,101996.88
2023-05-16T14:29:42.242Z,102003.47
2023-05-16T14:32:11.280Z,102001.38
2023-05-16T14:34:40.822Z,102009.25
2023-05-16T14:37:10.296Z,102012.81
2023-05-16T14:39:38.974Z,102008.50
2023-05-16T14:42:08.855Z,102002.00
2023-05-16T14:44:38.547Z,102011.63
2023-05-16T14:47:07.931Z,102004.84
2023-05-16T14:49:37.008Z,101998.00
2023-05-16T14:52:05.786Z,102017.19
2023-05-16T14:54:35.259Z,102010.50
2023-05-16T14:57:04.616Z,102008.44
2023-05-16T14:59:33.594Z,102013.97
2023-05-16T15:02:02.656Z,102016.81
2023-05-16T15:04:31.719Z,102014.97
2023-05-16T15:07:01.330Z,102019.22
2023-05-16T15:09:30.790Z,102011.69
2023-05-16T15:11:59.667Z,102017.06
2023-05-16T15:14:28.923Z,102021.00
2023-05-16T15:16:57.698Z,102018.13
2023-05-16T15:19:26.690Z,102019.16
2023-05-16T15:21:55.337Z,102027.03
2023-05-16T15:24:23.642Z,102012.69
2023-05-16T15:26:52.974Z,102019.81
2023-05-16T15:29:21.835Z,102016.91
2023-05-16T15:31:50.751Z,102019.22
2023-05-16T15:34:20.148Z,102022.97
2023-05-16T15:36:49.415Z,102027.22
2023-05-16T15:39:18.734Z,102025.06
2023-05-16T15:42:08.501Z,102030.25
2023-05-16T15:44:36.181Z,102025.53
2023-05-16T15:47:04.186Z,102027.56
2023-05-16T15:49:33.240Z,102034.34
2023-05-16T15:52:02.191Z,102034.34
2023-05-16T15:54:31.235Z,102031.88
2023-05-16T15:57:00.558Z,102031.88
2023-05-16T15:59:29.907Z,102032.25
2023-05-16T16:01:59.345Z,102033.59
2023-05-16T16:04:28.638Z,102030.56
2023-05-16T16:06:58.009Z,102027.03
2023-05-16T16:09:38.577Z,102028.91
2023-05-16T16:12:19.010Z,102027.81
2023-05-16T16:14:48.300Z,102022.44
2023-05-16T16:17:17.627Z,102030.13
2023-05-16T16:19:46.960Z,102029.19
2023-05-16T16:22:16.297Z,102036.13
2023-05-16T16:24:47.859Z,102031.59
2023-05-16T16:27:16.034Z,102033.72
2023-05-16T16:29:45.405Z,102038.69
2023-05-16T16:32:14.964Z,102035.63
2023-05-16T16:34:44.395Z,102041.81
2023-05-16T16:37:13.822Z,102041.41
2023-05-16T16:39:42.830Z,102043.50
2023-05-16T16:42:11.746Z,102048.28
2023-05-16T16:44:41.166Z,102047.13
2023-05-16T16:47:10.780Z,102047.47
2023-05-16T16:49:40.280Z,102049.72
2023-05-16T16:52:09.847Z,102049.31
2023-05-16T16:54:39.178Z,102057.19
2023-05-16T16:57:08.457Z,102055.72
2023-05-16T16:59:37.406Z,102053.56
2023-05-16T17:02:06.733Z,102058.22
2023-05-16T17:04:36.175Z,102064.66
2023-05-16T17:07:05.553Z,102059.28
2023-05-16T17:09:34.853Z,102062.44
2023-05-16T17:12:03.773Z,102074.66
2023-05-16T17:14:33.300Z,102073.91
2023-05-16T17:17:02.825Z,102074.66
2023-05-16T17:19:31.752Z,102076.38
2023-05-16T17:22:01.134Z,102077.84
2023-05-16T17:24:30.020Z,102077.63
2023-05-16T17:26:58.927Z,102078.88
2023-05-16T17:29:28.235Z,102079.19
2023-05-16T17:31:57.026Z,102083.63
2023-05-16T17:34:25.891Z,102084.84
2023-05-16T17:36:54.577Z,102080.72
2023-05-16T17:39:24.822Z,102085.91
2023-05-16T17:41:56.158Z,102093.72
2023-05-16T17:44:27.528Z,102096.22
2023-05-16T17:46:58.848Z,102102.63
2023-05-16T17:49:30.199Z,102095.81
2023-05-16T17:52:01.802Z,102098.28
2023-05-16T17:54:31.555Z,102100.03
2023-05-16T17:57:01.632Z,102097.16
2023-05-16T17:59:33.202Z,102105.00
2023-05-16T18:02:02.860Z,102108.19
2023-05-16T18:04:31.193Z,102116.03
2023-05-16T18:07:00.149Z,102110.69
2023-05-16T18:09:29.486Z,102107.03
2023-05-16T18:11:58.902Z,102111.66
2023-05-16T18:14:28.302Z,102118.06
2023-05-16T18:16:57.115Z,102127.38
2023-05-16T18:19:26.501Z,102112.25
2023-05-16T18:21:56.019Z,102116.22
2023-05-16T18:24:25.004Z,102123.00
2023-05-16T18:26:54.507Z,102126.94
2023-05-16T18:29:23.681Z,102121.59
2023-05-16T18:31:52.694Z,102122.81
2023-05-16T18:34:22.126Z,102120.13
2023-05-16T18:36:50.943Z,102122.81
2023-05-16T18:39:19.928Z,102113.31
2023-05-16T18:41:49.456Z,102108.69
2023-05-16T18:44:18.879Z,102117.44
2023-05-16T18:46:48.192Z,102125.47
2023-05-16T18:49:17.612Z,102121.38
2023-05-16T18:51:46.336Z,102115.78
2023-05-16T18:54:15.011Z,102124.34
2023-05-16T18:56:43.927Z,102122.38
2023-05-16T18:59:12.851Z,102122.19
2023-05-16T19:01:42.248Z,102130.00
2023-05-16T19:04:11.424Z,102135.91
2023-05-16T19:06:40.301Z,102142.47
2023-05-16T19:09:09.132Z,102138.91
2023-05-16T19:11:38.150Z,102140.09
2023-05-16T19:14:07.005Z,102152.09
2023-05-16T19:16:36.382Z,102145.03
2023-05-16T19:19:05.377Z,102157.00
2023-05-16T19:21:34.877Z,102157.53
2023-05-16T19:24:04.305Z,102158.03
2023-05-16T19:26:33.594Z,102159.78
2023-05-16T19:29:02.997Z,102158.34
2023-05-16T19:31:31.956Z,102156.19
2023-05-16T19:34:01.322Z,102153.97
2023-05-16T19:36:30.310Z,102163.78
2023-05-16T19:38:59.460Z,102161.59
2023-05-16T19:41:27.866Z,102161.59
2023-05-16T19:43:57.351Z,102166.03
2023-05-16T19:46:27.060Z,102164.56
2023-05-16T19:48:56.665Z,102161.91
2023-05-16T19:51:40.196Z,102167.06
2023-05-16T19:54:11.738Z,102170.94
2023-05-16T19:56:42.197Z,102170.94
2023-05-16T19:59:11.505Z,102168.78
2023-05-16T20:04:28.882Z,102169.31
2023-05-16T20:06:58.468Z,102165.16
2023-05-16T20:09:27.892Z,102163.72
2023-05-16T20:11:56.850Z,102170.31
2023-05-16T20:14:26.221Z,102171.56
2023-05-16T20:16:55.640Z,102175.44
2023-05-16T20:19:24.721Z,102178.13
2023-05-16T20:21:54.006Z,102173.28
2023-05-16T20:24:22.636Z,102169.88
2023-05-16T20:26:51.936Z,102176.47
2023-05-16T20:29:20.813Z,102180.38
2023-05-16T20:31:49.848Z,102178.97
2023-05-16T20:34:19.344Z,102184.31
2023-05-16T20:36:48.750Z,102186.78
2023-05-16T20:39:18.287Z,102192.84
2023-05-16T20:41:47.901Z,102196.03
2023-05-16T20:44:17.459Z,102186.56
2023-05-16T20:46:46.787Z,102193.13
2023-05-16T20:49:15.592Z,102193.13
2023-05-16T20:51:45.020Z,102191.69
2023-05-16T20:54:14.366Z,102195.59
2023-05-16T20:56:43.926Z,102200.94
2023-05-16T20:59:13.104Z,102192.69
2023-05-16T21:01:42.573Z,102203.41
2023-05-16T21:04:11.861Z,102205.91
2023-05-16T21:06:41.313Z,102211.25
2023-05-16T21:09:10.627Z,102209.81
2023-05-16T21:11:39.620Z,102202.97
2023-05-16T21:14:08.344Z,102212.97
2023-05-16T21:16:37.901Z,102212.22
2023-05-16T21:19:08.263Z,102217.59
2023-05-16T21:21:37.199Z,102209.34
2023-05-16T21:24:06.166Z,102217.38
2023-05-16T21:26:35.014Z,102207.91
2023-05-16T21:29:03.812Z,102205.75
2023-05-16T21:31:32.719Z,102205.03
2023-05-16T21:34:02.044Z,102212.31
2023-05-16T21:36:31.059Z,102208.91
2023-05-16T21:38:59.848Z,102224.06
2023-05-16T21:41:28.620Z,102219.91
2023-05-16T21:43:57.848Z,102217.97
2023-05-16T21:46:27.075Z,102220.66
2023-05-16T21:48:56.163Z,102221.16
2023-05-16T21:51:24.938Z,102223.09
2023-05-16T21:53:54.393Z,102223.09
2023-05-16T21:56:23.854Z,102229.69
2023-05-16T21:58:52.668Z,102224.09
2023-05-16T22:01:21.548Z,102236.78
2023-05-16T22:03:51.049Z,102233.38
2023-05-16T22:06:20.233Z,102232.66
2023-05-16T22:08:48.895Z,102238.53
2023-05-16T22:11:17.813Z,102234.38
2023-05-16T22:13:47.370Z,102239.00
2023-05-16T22:16:16.291Z,102239.00
2023-05-16T22:18:45.729Z,102232.97
2023-05-16T22:21:15.194Z,102238.09
2023-05-16T22:23:44.157Z,102230.03
2023-05-16T22:26:13.476Z,102239.28
2023-05-16T22:28:43.069Z,102239.28
2023-05-16T22:31:12.076Z,102225.69
2023-05-16T22:33:41.083Z,102236.41
2023-05-16T22:36:09.272Z,102241.75
2023-05-16T22:38:38.630Z,102243.00
2023-05-16T22:41:07.996Z,102243.50
2023-05-16T22:43:37.614Z,102238.84
2023-05-16T22:46:07.119Z,102244.22
2023-05-16T22:48:36.585Z,102241.31
2023-05-16T22:51:05.944Z,102243.25
2023-05-16T22:53:34.917Z,102245.22
2023-05-16T22:56:03.556Z,102242.56
2023-05-16T22:58:32.390Z,102245.22
2023-05-16T23:01:01.304Z,102249.16
2023-05-16T23:03:30.389Z,102245.03
2023-05-16T23:05:59.843Z,102238.19
2023-05-16T23:08:29.310Z,102250.13
2023-05-16T23:10:58.676Z,102251.38
2023-05-16T23:13:27.603Z,102246.00
2023-05-16T23:15:56.409Z,102252.63
2023-05-16T23:18:25.767Z,102255.75
2023-05-16T23:20:54.794Z,102260.38
2023-05-16T23:23:24.268Z,102248.97
2023-05-16T23:25:53.678Z,102252.88
2023-05-16T23:28:22.626Z,102241.41
2023-05-16T23:30:51.814Z,102247.50
2023-05-16T23:33:20.652Z,102246.78
2023-05-16T23:35:50.079Z,102256.03
2023-05-16T23:38:18.926Z,102266.75
2023-05-16T23:40:48.367Z,102264.59
2023-05-16T23:43:17.811Z,102259.25
2023-05-16T23:45:47.216Z,102251.69
2023-05-16T23:48:16.797Z,102262.41
2023-05-16T23:50:49.718Z,102266.31
2023-05-16T23:53:19.157Z,102262.19
2023-05-16T23:55:48.230Z,102260.22
2023-05-16T23:58:17.644Z,102258.06
